createdAt,value
2022-09-09T00:01:50.966Z,100.00
2022-09-09T00:07:01.411Z,100.00
2022-09-09T00:12:12.930Z,100.00
2022-09-09T00:17:26.746Z,100.00
2022-09-09T00:22:32.920Z,100.00
2022-09-09T00:27:42.335Z,100.00
2022-09-09T00:32:46.366Z,100.00
2022-09-09T00:37:52.914Z,100.00
2022-09-09T00:43:11.711Z,100.00
2022-09-09T00:48:17.124Z,100.00
2022-09-09T00:53:39.413Z,100.00
2022-09-09T00:58:45.511Z,100.00
2022-09-09T01:03:54.293Z,100.00
2022-09-09T01:09:10.751Z,100.00
2022-09-09T01:14:26.362Z,100.00
2022-09-09T01:19:42.939Z,100.00
2022-09-09T01:25:23.443Z,100.00
2022-09-09T01:30:50.991Z,100.00
2022-09-09T01:36:01.664Z,100.00
2022-09-09T01:41:09.150Z,100.00
2022-09-09T01:46:25.812Z,100.00
2022-09-09T01:51:29.032Z,100.00
2022-09-09T01:56:43.024Z,100.00
2022-09-09T02:02:00.385Z,100.00
2022-09-09T02:07:03.535Z,100.00
2022-09-09T02:12:13.189Z,100.00
2022-09-09T02:17:30.867Z,100.00
2022-09-09T02:22:42.534Z,100.00
2022-09-09T02:27:49.950Z,100.00
2022-09-09T02:32:58.712Z,100.00
2022-09-09T02:38:17.080Z,100.00
2022-09-09T02:43:33.979Z,100.00
2022-09-09T02:48:50.741Z,100.00
2022-09-09T02:54:01.880Z,100.00
2022-09-09T02:59:06.991Z,100.00
2022-09-09T03:04:13.522Z,100.00
2022-09-09T03:09:17.243Z,100.00
2022-09-09T03:14:22.222Z,100.00
2022-09-09T03:19:28.659Z,100.00
2022-09-09T03:24:31.471Z,100.00
2022-09-09T03:29:35.114Z,100.00
2022-09-09T03:34:41.931Z,100.00
2022-09-09T03:39:47.837Z,100.00
2022-09-09T03:44:52.350Z,100.00
2022-09-09T03:49:59.775Z,100.00
2022-09-09T03:55:02.954Z,100.00
2022-09-09T04:00:08.879Z,100.00
2022-09-09T04:05:26.348Z,100.00
2022-09-09T04:10:29.624Z,100.00
2022-09-09T04:15:34.065Z,100.00
2022-09-09T04:20:38.850Z,100.00
2022-09-09T04:25:47.737Z,100.00
2022-09-09T04:30:51.191Z,100.00
2022-09-09T04:35:56.759Z,100.00
2022-09-09T04:41:02.414Z,100.00
2022-09-09T04:46:06.403Z,100.00
2022-09-09T04:51:14.457Z,100.00
2022-09-09T04:56:19.668Z,100.00
2022-09-09T05:01:29.059Z,100.00
2022-09-09T05:06:39.325Z,100.00
2022-09-09T05:11:42.876Z,100.00
2022-09-09T05:17:06.399Z,100.00
2022-09-09T05:22:13.079Z,100.00
2022-09-09T05:27:21.169Z,100.00
2022-09-09T05:32:25.523Z,100.00
2022-09-09T05:37:31.158Z,100.00
2022-09-09T05:42:34.909Z,100.00
2022-09-09T05:47:38.756Z,100.00
2022-09-09T05:52:46.359Z,100.00
2022-09-09T05:57:52.761Z,100.00
2022-09-09T06:02:56.552Z,100.00
2022-09-09T06:08:00.838Z,100.00
2022-09-09T06:13:03.868Z,100.00
2022-09-09T06:18:07.403Z,100.00
2022-09-09T06:23:13.214Z,100.00
2022-09-09T06:28:16.612Z,100.00
2022-09-09T06:33:19.699Z,100.00
2022-09-09T06:38:25.052Z,100.00
2022-09-09T06:43:30.613Z,100.00
2022-09-09T06:48:35.453Z,100.00
2022-09-09T06:53:43.100Z,100.00
2022-09-09T06:58:47.409Z,100.00
2022-09-09T07:03:59.817Z,100.00
2022-09-09T07:09:07.056Z,100.00
2022-09-09T07:14:13.329Z,100.00
2022-09-09T07:19:16.529Z,100.00
2022-09-09T07:24:21.826Z,100.00
2022-09-09T07:29:25.353Z,98.49
2022-09-09T07:34:28.132Z,94.19
2022-09-09T07:39:32.311Z,89.14
2022-09-09T07:44:36.439Z,84.67
2022-09-09T07:49:49.308Z,83.08
2022-09-09T07:54:57.392Z,79.98
2022-09-09T08:00:00.468Z,78.42
2022-09-09T08:05:05.832Z,77.63
2022-09-09T08:10:11.036Z,77.05
2022-09-09T08:15:17.211Z,76.23
2022-09-09T08:20:20.136Z,78.08
2022-09-09T08:25:24.309Z,78.38
2022-09-09T08:30:28.477Z,74.44
2022-09-09T08:35:33.630Z,70.04
2022-09-09T08:40:42.107Z,67.30
2022-09-09T08:45:57.354Z,66.88
2022-09-09T08:51:03.092Z,66.17
2022-09-09T08:56:16.275Z,65.36
2022-09-09T09:01:41.532Z,64.92
2022-09-09T09:06:56.858Z,64.09
2022-09-09T09:12:03.355Z,63.20
2022-09-09T09:17:16.549Z,63.39
2022-09-09T09:22:23.202Z,63.00
2022-09-09T09:27:36.188Z,61.70
2022-09-09T09:32:54.285Z,62.23
2022-09-09T09:43:27.297Z,62.51
2022-09-09T09:48:30.349Z,61.75
2022-09-09T09:53:35.880Z,61.22
2022-09-09T09:58:52.058Z,58.84
2022-09-09T10:04:01.291Z,58.91
2022-09-09T10:09:08.660Z,59.56
2022-09-09T10:14:21.926Z,58.76
2022-09-09T10:19:32.652Z,57.74
2022-09-09T10:24:50.145Z,55.70
2022-09-09T10:30:18.419Z,53.56
2022-09-09T10:35:31.622Z,52.74
2022-09-09T10:40:37.244Z,50.86
2022-09-09T10:45:51.829Z,53.85
2022-09-09T10:51:03.990Z,55.03
2022-09-09T10:56:11.403Z,54.51
2022-09-09T11:01:23.263Z,54.22
2022-09-09T11:06:33.652Z,53.57
2022-09-09T11:11:41.325Z,53.42
2022-09-09T11:16:50.279Z,54.06
2022-09-09T11:21:55.665Z,53.10
2022-09-09T11:27:03.901Z,51.67
2022-09-09T11:32:23.983Z,51.89
2022-09-09T11:37:54.186Z,50.73
2022-09-09T11:43:06.866Z,49.04
2022-09-09T11:48:27.663Z,49.75
2022-09-09T11:53:30.975Z,48.53
2022-09-09T11:58:42.687Z,47.65
2022-09-09T12:03:51.575Z,49.87
2022-09-09T12:08:58.281Z,48.77
2022-09-09T12:14:02.717Z,47.08
2022-09-09T12:19:09.635Z,46.39
2022-09-09T12:24:15.152Z,45.54
2022-09-09T12:29:30.519Z,44.72
2022-09-09T12:34:42.178Z,45.92
2022-09-09T12:39:49.515Z,45.55
2022-09-09T12:44:56.800Z,49.57
2022-09-09T12:50:02.801Z,51.23
2022-09-09T12:55:09.357Z,53.58
2022-09-09T13:00:17.792Z,53.68
2022-09-09T13:05:24.744Z,52.77
2022-09-09T13:10:36.892Z,48.58
2022-09-09T13:15:55.696Z,49.18
2022-09-09T13:21:00.593Z,49.76
2022-09-09T13:26:07.384Z,49.02
2022-09-09T13:31:23.650Z,47.64
2022-09-09T13:36:32.019Z,49.96
2022-09-09T13:41:37.151Z,54.10
2022-09-09T13:46:42.267Z,53.59
2022-09-09T13:51:48.378Z,53.82
2022-09-09T13:56:52.233Z,53.73
2022-09-09T14:01:55.165Z,53.90
2022-09-09T14:07:00.448Z,54.88
2022-09-09T14:12:03.885Z,59.39
2022-09-09T14:17:08.247Z,59.98
2022-09-09T14:22:13.212Z,60.49
2022-09-09T14:27:16.200Z,63.20
2022-09-09T14:32:18.923Z,64.70
2022-09-09T14:37:23.046Z,69.03
2022-09-09T14:42:26.865Z,69.71
2022-09-09T14:47:31.273Z,68.36
2022-09-09T14:52:38.106Z,70.31
2022-09-09T14:57:41.193Z,74.51
2022-09-09T15:02:45.706Z,76.48
2022-09-09T15:07:50.048Z,78.52
2022-09-09T15:12:52.900Z,79.82
2022-09-09T15:17:55.667Z,93.87
2022-09-09T15:22:59.754Z,100.00
2022-09-09T15:28:02.516Z,100.00
2022-09-09T15:33:12.883Z,100.00
2022-09-09T15:38:17.527Z,100.00
2022-09-09T15:43:20.321Z,100.00
2022-09-09T15:48:33.219Z,100.00
2022-09-09T15:53:38.352Z,100.00
2022-09-09T15:58:41.177Z,100.00
2022-09-09T16:03:47.033Z,100.00
2022-09-09T16:08:53.254Z,100.00
2022-09-09T16:13:57.442Z,100.00
2022-09-09T16:19:01.923Z,100.00
2022-09-09T16:24:08.084Z,100.00
2022-09-09T16:29:10.887Z,100.00
2022-09-09T16:34:13.631Z,100.00
2022-09-09T16:39:19.825Z,100.00
2022-09-09T16:44:22.957Z,100.00
2022-09-09T16:49:25.962Z,100.00
2022-09-09T16:54:30.511Z,100.00
2022-09-09T16:59:33.273Z,100.00
2022-09-09T17:04:36.489Z,100.00
2022-09-09T17:09:40.562Z,100.00
2022-09-09T17:14:43.589Z,100.00
2022-09-09T17:19:46.373Z,100.00
2022-09-09T17:24:50.548Z,100.00
2022-09-09T17:29:53.275Z,100.00
2022-09-09T17:34:56.626Z,100.00
2022-09-09T17:40:01.503Z,100.00
2022-09-09T17:45:05.146Z,100.00
2022-09-09T17:50:09.039Z,100.00
2022-09-09T17:55:13.127Z,100.00
2022-09-09T18:00:16.538Z,100.00
2022-09-09T18:05:21.293Z,100.00
2022-09-09T18:10:25.571Z,100.00
2022-09-09T18:15:46.111Z,100.00
2022-09-09T18:20:59.280Z,100.00
2022-09-09T18:26:03.467Z,100.00
2022-09-09T18:31:08.180Z,100.00
2022-09-09T18:36:12.705Z,100.00
2022-09-09T18:41:18.327Z,100.00
2022-09-09T18:46:22.507Z,100.00
2022-09-09T18:51:28.088Z,100.00
2022-09-09T18:56:32.672Z,100.00
2022-09-09T19:01:37.128Z,100.00
2022-09-09T19:06:41.790Z,100.00
2022-09-09T19:11:46.689Z,100.00
2022-09-09T19:16:49.551Z,100.00
2022-09-09T19:21:52.482Z,100.00
2022-09-09T19:27:01.600Z,100.00
2022-09-09T19:37:27.497Z,100.00
2022-09-09T19:42:32.105Z,100.00
2022-09-09T19:47:35.807Z,100.00
2022-09-09T19:52:38.816Z,100.00
2022-09-09T19:57:43.357Z,100.00
2022-09-09T20:03:02.548Z,100.00
2022-09-09T20:08:05.694Z,100.00
2022-09-09T20:13:09.726Z,100.00
2022-09-09T20:18:12.559Z,100.00
2022-09-09T20:23:16.226Z,100.00
2022-09-09T20:28:20.866Z,100.00
2022-09-09T20:33:23.571Z,100.00
2022-09-09T20:38:28.154Z,100.00
2022-09-09T20:43:33.029Z,100.00
2022-09-09T20:48:36.202Z,100.00
2022-09-09T20:53:39.477Z,100.00
2022-09-09T20:58:44.767Z,100.00
2022-09-09T21:03:48.299Z,100.00
2022-09-09T21:08:51.383Z,100.00
2022-09-09T21:13:56.287Z,100.00
2022-09-09T21:18:59.589Z,100.00
2022-09-09T21:24:02.802Z,100.00
2022-09-09T21:29:06.982Z,100.00
2022-09-09T21:34:10.655Z,100.00
2022-09-09T21:39:13.718Z,100.00
2022-09-09T21:44:19.090Z,100.00
2022-09-09T21:49:22.214Z,100.00
2022-09-09T21:54:26.959Z,100.00
2022-09-09T21:59:31.993Z,100.00
2022-09-09T22:04:36.951Z,100.00
2022-09-09T22:09:39.626Z,100.00
2022-09-09T22:14:44.079Z,100.00
2022-09-09T22:19:47.179Z,100.00
2022-09-09T22:24:49.865Z,100.00
2022-09-09T22:29:53.886Z,100.00
2022-09-09T22:34:56.551Z,100.00
2022-09-09T22:39:59.285Z,100.00
2022-09-09T22:45:03.476Z,100.00
2022-09-09T22:50:07.352Z,100.00
2022-09-09T22:55:10.315Z,100.00
2022-09-09T23:00:15.638Z,100.00
2022-09-09T23:05:21.286Z,100.00
2022-09-09T23:10:24.128Z,100.00
2022-09-09T23:15:31.306Z,100.00
2022-09-09T23:20:34.800Z,100.00
2022-09-09T23:25:37.974Z,100.00
2022-09-09T23:30:43.907Z,100.00
2022-09-09T23:35:46.913Z,100.00
2022-09-09T23:40:49.665Z,100.00
2022-09-09T23:45:54.198Z,100.00
2022-09-09T23:50:57.034Z,100.00
2022-09-09T23:56:00.333Z,100.00
